sensor_id;sensor_type;location;lat;lon;timestamp;P1;durP1;ratioP1;P2;durP2;ratioP2
51883;SDS011;37915;53.254;6.598;2023-06-22T00:00:55;23.15;;;19.67;;
51883;SDS011;37915;53.254;6.598;2023-06-22T00:03:22;26.60;;;21.10;;
51883;SDS011;37915;53.254;6.598;2023-06-22T00:05:49;26.80;;;19.73;;
51883;SDS011;37915;53.254;6.598;2023-06-22T00:08:16;25.25;;;19.92;;
51883;SDS011;37915;53.254;6.598;2023-06-22T00:10:43;25.88;;;19.85;;
51883;SDS011;37915;53.254;6.598;2023-06-22T00:13:09;28.38;;;20.73;;
51883;SDS011;37915;53.254;6.598;2023-06-22T00:15:36;27.88;;;21.25;;
51883;SDS011;37915;53.254;6.598;2023-06-22T00:18:04;25.17;;;20.65;;
51883;SDS011;37915;53.254;6.598;2023-06-22T00:20:33;26.30;;;21.15;;
51883;SDS011;37915;53.254;6.598;2023-06-22T00:23:02;24.48;;;20.65;;
51883;SDS011;37915;53.254;6.598;2023-06-22T00:25:34;30.17;;;21.63;;
51883;SDS011;37915;53.254;6.598;2023-06-22T00:28:00;25.40;;;20.23;;
51883;SDS011;37915;53.254;6.598;2023-06-22T00:30:27;27.08;;;20.30;;
51883;SDS011;37915;53.254;6.598;2023-06-22T00:32:52;28.17;;;20.88;;
51883;SDS011;37915;53.254;6.598;2023-06-22T00:35:18;24.60;;;19.80;;
51883;SDS011;37915;53.254;6.598;2023-06-22T00:37:44;22.33;;;19.67;;
51883;SDS011;37915;53.254;6.598;2023-06-22T00:40:10;23.80;;;19.92;;
51883;SDS011;37915;53.254;6.598;2023-06-22T00:42:40;25.00;;;20.05;;
51883;SDS011;37915;53.254;6.598;2023-06-22T00:45:06;27.83;;;20.67;;
51883;SDS011;37915;53.254;6.598;2023-06-22T00:47:36;23.90;;;20.92;;
51883;SDS011;37915;53.254;6.598;2023-06-22T00:50:03;25.17;;;20.70;;
51883;SDS011;37915;53.254;6.598;2023-06-22T00:52:31;27.15;;;19.92;;
51883;SDS011;37915;53.254;6.598;2023-06-22T00:55:00;26.33;;;20.02;;
51883;SDS011;37915;53.254;6.598;2023-06-22T00:57:27;23.40;;;18.00;;
51883;SDS011;37915;53.254;6.598;2023-06-22T00:59:54;22.15;;;18.42;;
51883;SDS011;37915;53.254;6.598;2023-06-22T01:02:20;25.98;;;16.70;;
51883;SDS011;37915;53.254;6.598;2023-06-22T01:04:46;20.65;;;16.60;;
51883;SDS011;37915;53.254;6.598;2023-06-22T01:09:46;20.52;;;16.55;;
51883;SDS011;37915;53.254;6.598;2023-06-22T01:12:22;20.42;;;16.17;;
51883;SDS011;37915;53.254;6.598;2023-06-22T01:14:50;17.80;;;15.60;;
51883;SDS011;37915;53.254;6.598;2023-06-22T01:17:25;18.02;;;14.50;;
51883;SDS011;37915;53.254;6.598;2023-06-22T01:19:54;16.10;;;14.40;;
51883;SDS011;37915;53.254;6.598;2023-06-22T01:22:25;15.77;;;13.00;;
51883;SDS011;37915;53.254;6.598;2023-06-22T01:30:26;16.58;;;12.75;;
51883;SDS011;37915;53.254;6.598;2023-06-22T01:32:54;15.25;;;13.52;;
51883;SDS011;37915;53.254;6.598;2023-06-22T01:35:22;17.33;;;14.32;;
51883;SDS011;37915;53.254;6.598;2023-06-22T01:37:48;16.98;;;14.98;;
51883;SDS011;37915;53.254;6.598;2023-06-22T01:40:15;17.90;;;15.00;;
51883;SDS011;37915;53.254;6.598;2023-06-22T01:42:41;18.95;;;15.70;;
51883;SDS011;37915;53.254;6.598;2023-06-22T01:45:08;20.67;;;16.63;;
51883;SDS011;37915;53.254;6.598;2023-06-22T01:47:36;17.38;;;15.25;;
51883;SDS011;37915;53.254;6.598;2023-06-22T01:50:02;20.02;;;16.48;;
51883;SDS011;37915;53.254;6.598;2023-06-22T01:52:28;21.60;;;17.58;;
51883;SDS011;37915;53.254;6.598;2023-06-22T01:54:54;19.17;;;17.00;;
51883;SDS011;37915;53.254;6.598;2023-06-22T01:57:22;18.80;;;16.23;;
51883;SDS011;37915;53.254;6.598;2023-06-22T02:02:43;17.20;;;15.50;;
51883;SDS011;37915;53.254;6.598;2023-06-22T02:05:09;18.00;;;16.13;;
51883;SDS011;37915;53.254;6.598;2023-06-22T02:07:41;17.98;;;16.17;;
51883;SDS011;37915;53.254;6.598;2023-06-22T02:10:11;17.53;;;15.57;;
51883;SDS011;37915;53.254;6.598;2023-06-22T02:12:41;18.88;;;15.45;;
51883;SDS011;37915;53.254;6.598;2023-06-22T02:15:08;19.45;;;16.27;;
51883;SDS011;37915;53.254;6.598;2023-06-22T02:17:37;20.50;;;17.17;;
51883;SDS011;37915;53.254;6.598;2023-06-22T02:20:03;20.92;;;16.48;;
51883;SDS011;37915;53.254;6.598;2023-06-22T02:22:32;19.83;;;17.65;;
51883;SDS011;37915;53.254;6.598;2023-06-22T02:24:58;21.27;;;18.30;;
51883;SDS011;37915;53.254;6.598;2023-06-22T02:27:24;22.00;;;17.52;;
51883;SDS011;37915;53.254;6.598;2023-06-22T02:29:49;19.58;;;17.05;;
51883;SDS011;37915;53.254;6.598;2023-06-22T02:32:15;23.00;;;18.13;;
51883;SDS011;37915;53.254;6.598;2023-06-22T02:34:42;20.70;;;17.27;;
51883;SDS011;37915;53.254;6.598;2023-06-22T02:37:12;20.02;;;17.13;;
51883;SDS011;37915;53.254;6.598;2023-06-22T02:39:41;19.77;;;16.77;;
51883;SDS011;37915;53.254;6.598;2023-06-22T02:42:07;22.20;;;17.30;;
51883;SDS011;37915;53.254;6.598;2023-06-22T02:44:33;20.60;;;16.60;;
51883;SDS011;37915;53.254;6.598;2023-06-22T02:46:58;18.65;;;16.08;;
51883;SDS011;37915;53.254;6.598;2023-06-22T02:49:24;16.83;;;14.90;;
51883;SDS011;37915;53.254;6.598;2023-06-22T02:51:50;20.15;;;15.98;;
51883;SDS011;37915;53.254;6.598;2023-06-22T02:54:15;18.02;;;16.00;;
51883;SDS011;37915;53.254;6.598;2023-06-22T02:56:42;18.13;;;16.08;;
51883;SDS011;37915;53.254;6.598;2023-06-22T02:59:10;19.13;;;16.33;;
51883;SDS011;37915;53.254;6.598;2023-06-22T03:01:37;20.02;;;17.15;;
51883;SDS011;37915;53.254;6.598;2023-06-22T03:04:06;22.35;;;18.80;;
51883;SDS011;37915;53.254;6.598;2023-06-22T03:06:32;22.83;;;18.00;;
51883;SDS011;37915;53.254;6.598;2023-06-22T03:09:02;23.40;;;19.92;;
51883;SDS011;37915;53.254;6.598;2023-06-22T03:11:30;21.05;;;18.50;;
51883;SDS011;37915;53.254;6.598;2023-06-22T03:13:56;20.23;;;18.02;;
51883;SDS011;37915;53.254;6.598;2023-06-22T03:16:22;18.85;;;16.85;;
51883;SDS011;37915;53.254;6.598;2023-06-22T03:18:48;20.13;;;17.83;;
51883;SDS011;37915;53.254;6.598;2023-06-22T03:21:14;20.48;;;17.17;;
51883;SDS011;37915;53.254;6.598;2023-06-22T03:23:40;18.38;;;16.27;;
51883;SDS011;37915;53.254;6.598;2023-06-22T03:26:06;16.45;;;14.75;;
51883;SDS011;37915;53.254;6.598;2023-06-22T03:28:33;15.43;;;14.00;;
51883;SDS011;37915;53.254;6.598;2023-06-22T03:30:59;14.88;;;13.48;;
51883;SDS011;37915;53.254;6.598;2023-06-22T03:33:25;14.27;;;12.98;;
51883;SDS011;37915;53.254;6.598;2023-06-22T03:35:50;13.43;;;12.23;;
51883;SDS011;37915;53.254;6.598;2023-06-22T03:38:16;12.52;;;11.43;;
51883;SDS011;37915;53.254;6.598;2023-06-22T03:40:42;13.70;;;12.40;;
51883;SDS011;37915;53.254;6.598;2023-06-22T03:43:08;13.57;;;12.18;;
51883;SDS011;37915;53.254;6.598;2023-06-22T03:45:34;14.27;;;12.85;;
51883;SDS011;37915;53.254;6.598;2023-06-22T03:48:00;13.32;;;11.95;;
51883;SDS011;37915;53.254;6.598;2023-06-22T03:50:26;14.85;;;13.35;;
51883;SDS011;37915;53.254;6.598;2023-06-22T03:52:52;14.27;;;12.88;;
51883;SDS011;37915;53.254;6.598;2023-06-22T03:55:21;15.45;;;13.88;;
51883;SDS011;37915;53.254;6.598;2023-06-22T03:57:46;16.65;;;13.68;;
51883;SDS011;37915;53.254;6.598;2023-06-22T04:00:12;16.58;;;14.77;;
51883;SDS011;37915;53.254;6.598;2023-06-22T04:02:40;17.58;;;15.18;;
51883;SDS011;37915;53.254;6.598;2023-06-22T04:05:08;19.17;;;15.13;;
51883;SDS011;37915;53.254;6.598;2023-06-22T04:07:34;18.25;;;16.33;;
51883;SDS011;37915;53.254;6.598;2023-06-22T04:10:02;19.83;;;16.45;;
51883;SDS011;37915;53.254;6.598;2023-06-22T04:12:29;19.92;;;17.73;;
51883;SDS011;37915;53.254;6.598;2023-06-22T04:14:54;25.02;;;20.38;;
51883;SDS011;37915;53.254;6.598;2023-06-22T04:17:20;25.67;;;19.77;;
51883;SDS011;37915;53.254;6.598;2023-06-22T04:19:46;21.75;;;18.63;;
51883;SDS011;37915;53.254;6.598;2023-06-22T04:22:12;21.52;;;18.85;;
51883;SDS011;37915;53.254;6.598;2023-06-22T04:24:37;19.63;;;17.52;;
51883;SDS011;37915;53.254;6.598;2023-06-22T04:27:03;19.33;;;17.33;;
51883;SDS011;37915;53.254;6.598;2023-06-22T04:29:29;18.42;;;16.52;;
51883;SDS011;37915;53.254;6.598;2023-06-22T04:31:58;20.60;;;18.30;;
51883;SDS011;37915;53.254;6.598;2023-06-22T04:34:28;22.08;;;18.92;;
51883;SDS011;37915;53.254;6.598;2023-06-22T04:36:54;24.17;;;18.88;;
51883;SDS011;37915;53.254;6.598;2023-06-22T04:39:20;21.95;;;17.90;;
51883;SDS011;37915;53.254;6.598;2023-06-22T04:41:46;21.63;;;18.75;;
51883;SDS011;37915;53.254;6.598;2023-06-22T04:44:13;23.23;;;19.40;;
51883;SDS011;37915;53.254;6.598;2023-06-22T04:46:48;20.90;;;18.70;;
51883;SDS011;37915;53.254;6.598;2023-06-22T04:49:28;21.55;;;18.08;;
51883;SDS011;37915;53.254;6.598;2023-06-22T04:52:01;19.67;;;17.15;;
51883;SDS011;37915;53.254;6.598;2023-06-22T04:54:29;20.23;;;17.90;;
51883;SDS011;37915;53.254;6.598;2023-06-22T04:57:01;18.83;;;16.83;;
51883;SDS011;37915;53.254;6.598;2023-06-22T04:59:28;18.48;;;16.58;;
51883;SDS011;37915;53.254;6.598;2023-06-22T05:01:59;19.35;;;17.40;;
51883;SDS011;37915;53.254;6.598;2023-06-22T05:04:26;19.38;;;17.38;;
51883;SDS011;37915;53.254;6.598;2023-06-22T05:06:56;20.30;;;17.80;;
51883;SDS011;37915;53.254;6.598;2023-06-22T05:09:23;22.92;;;18.42;;
51883;SDS011;37915;53.254;6.598;2023-06-22T05:11:50;22.38;;;19.13;;
51883;SDS011;37915;53.254;6.598;2023-06-22T05:14:16;25.80;;;21.50;;
51883;SDS011;37915;53.254;6.598;2023-06-22T05:16:42;24.75;;;21.08;;
51883;SDS011;37915;53.254;6.598;2023-06-22T05:19:08;24.83;;;21.88;;
51883;SDS011;37915;53.254;6.598;2023-06-22T05:21:34;30.20;;;23.27;;
51883;SDS011;37915;53.254;6.598;2023-06-22T05:24:00;29.95;;;24.92;;
51883;SDS011;37915;53.254;6.598;2023-06-22T05:26:27;35.35;;;25.85;;
51883;SDS011;37915;53.254;6.598;2023-06-22T05:28:54;34.53;;;27.80;;
51883;SDS011;37915;53.254;6.598;2023-06-22T05:31:20;34.22;;;28.63;;
51883;SDS011;37915;53.254;6.598;2023-06-22T05:33:46;37.42;;;28.60;;
51883;SDS011;37915;53.254;6.598;2023-06-22T05:36:12;36.78;;;29.30;;
51883;SDS011;37915;53.254;6.598;2023-06-22T05:38:39;36.22;;;28.60;;
51883;SDS011;37915;53.254;6.598;2023-06-22T05:41:05;41.03;;;30.70;;
51883;SDS011;37915;53.254;6.598;2023-06-22T05:43:31;39.20;;;31.65;;
51883;SDS011;37915;53.254;6.598;2023-06-22T05:45:57;38.03;;;31.02;;
51883;SDS011;37915;53.254;6.598;2023-06-22T05:48:24;38.90;;;31.55;;
51883;SDS011;37915;53.254;6.598;2023-06-22T05:50:50;40.90;;;31.48;;
51883;SDS011;37915;53.254;6.598;2023-06-22T05:53:16;41.78;;;33.08;;
51883;SDS011;37915;53.254;6.598;2023-06-22T05:55:41;40.30;;;30.77;;
51883;SDS011;37915;53.254;6.598;2023-06-22T05:58:07;45.40;;;34.85;;
51883;SDS011;37915;53.254;6.598;2023-06-22T06:00:34;46.22;;;35.92;;
51883;SDS011;37915;53.254;6.598;2023-06-22T06:03:00;48.38;;;34.38;;
51883;SDS011;37915;53.254;6.598;2023-06-22T06:05:29;45.63;;;35.70;;
51883;SDS011;37915;53.254;6.598;2023-06-22T06:07:55;39.42;;;32.97;;
51883;SDS011;37915;53.254;6.598;2023-06-22T06:10:22;42.80;;;33.33;;
51883;SDS011;37915;53.254;6.598;2023-06-22T06:12:47;42.83;;;34.17;;
51883;SDS011;37915;53.254;6.598;2023-06-22T06:15:13;41.05;;;31.38;;
51883;SDS011;37915;53.254;6.598;2023-06-22T06:17:46;45.20;;;31.77;;
51883;SDS011;37915;53.254;6.598;2023-06-22T06:20:18;39.28;;;31.17;;
51883;SDS011;37915;53.254;6.598;2023-06-22T06:22:48;43.78;;;32.53;;
51883;SDS011;37915;53.254;6.598;2023-06-22T06:25:14;56.25;;;34.20;;
51883;SDS011;37915;53.254;6.598;2023-06-22T06:27:43;43.95;;;31.80;;
51883;SDS011;37915;53.254;6.598;2023-06-22T06:30:10;38.95;;;30.27;;
51883;SDS011;37915;53.254;6.598;2023-06-22T06:32:37;39.47;;;31.33;;
51883;SDS011;37915;53.254;6.598;2023-06-22T06:35:04;43.15;;;33.95;;
51883;SDS011;37915;53.254;6.598;2023-06-22T06:37:31;47.38;;;30.02;;
51883;SDS011;37915;53.254;6.598;2023-06-22T06:39:56;36.35;;;29.42;;
51883;SDS011;37915;53.254;6.598;2023-06-22T06:42:22;38.38;;;27.15;;
51883;SDS011;37915;53.254;6.598;2023-06-22T06:44:49;31.63;;;25.80;;
51883;SDS011;37915;53.254;6.598;2023-06-22T06:47:15;28.85;;;23.88;;
51883;SDS011;37915;53.254;6.598;2023-06-22T06:49:42;28.50;;;22.38;;
51883;SDS011;37915;53.254;6.598;2023-06-22T06:52:08;24.25;;;19.75;;
51883;SDS011;37915;53.254;6.598;2023-06-22T06:54:33;22.52;;;17.63;;
51883;SDS011;37915;53.254;6.598;2023-06-22T06:56:59;25.95;;;18.92;;
51883;SDS011;37915;53.254;6.598;2023-06-22T06:59:25;23.58;;;18.63;;
51883;SDS011;37915;53.254;6.598;2023-06-22T07:01:50;26.40;;;19.98;;
51883;SDS011;37915;53.254;6.598;2023-06-22T07:04:16;22.95;;;19.45;;
51883;SDS011;37915;53.254;6.598;2023-06-22T07:06:42;23.25;;;19.50;;
51883;SDS011;37915;53.254;6.598;2023-06-22T07:09:08;24.85;;;20.13;;
51883;SDS011;37915;53.254;6.598;2023-06-22T07:11:33;26.80;;;18.80;;
51883;SDS011;37915;53.254;6.598;2023-06-22T07:14:00;28.48;;;20.40;;
51883;SDS011;37915;53.254;6.598;2023-06-22T07:16:26;24.92;;;21.38;;
51883;SDS011;37915;53.254;6.598;2023-06-22T07:18:53;24.73;;;19.63;;
51883;SDS011;37915;53.254;6.598;2023-06-22T07:21:19;24.55;;;19.17;;
51883;SDS011;37915;53.254;6.598;2023-06-22T07:23:44;24.23;;;18.33;;
51883;SDS011;37915;53.254;6.598;2023-06-22T07:26:10;19.98;;;14.77;;
51883;SDS011;37915;53.254;6.598;2023-06-22T07:28:37;16.55;;;12.63;;
51883;SDS011;37915;53.254;6.598;2023-06-22T07:31:05;15.93;;;13.68;;
51883;SDS011;37915;53.254;6.598;2023-06-22T07:33:31;14.10;;;11.27;;
51883;SDS011;37915;53.254;6.598;2023-06-22T07:35:57;14.77;;;11.77;;
51883;SDS011;37915;53.254;6.598;2023-06-22T07:38:22;13.25;;;8.65;;
51883;SDS011;37915;53.254;6.598;2023-06-22T07:40:48;12.52;;;7.75;;
51883;SDS011;37915;53.254;6.598;2023-06-22T07:43:15;12.00;;;7.68;;
51883;SDS011;37915;53.254;6.598;2023-06-22T07:45:45;10.90;;;7.90;;
51883;SDS011;37915;53.254;6.598;2023-06-22T07:48:22;14.05;;;8.77;;
51883;SDS011;37915;53.254;6.598;2023-06-22T07:50:48;11.60;;;8.63;;
51883;SDS011;37915;53.254;6.598;2023-06-22T07:53:14;11.52;;;8.07;;
51883;SDS011;37915;53.254;6.598;2023-06-22T07:55:40;11.95;;;8.18;;
51883;SDS011;37915;53.254;6.598;2023-06-22T07:58:06;9.65;;;7.40;;
51883;SDS011;37915;53.254;6.598;2023-06-22T08:00:33;11.07;;;7.30;;
51883;SDS011;37915;53.254;6.598;2023-06-22T08:02:59;11.45;;;7.68;;
51883;SDS011;37915;53.254;6.598;2023-06-22T08:05:25;11.30;;;8.43;;
51883;SDS011;37915;53.254;6.598;2023-06-22T08:07:50;14.65;;;9.18;;
51883;SDS011;37915;53.254;6.598;2023-06-22T08:10:16;10.52;;;8.70;;
51883;SDS011;37915;53.254;6.598;2023-06-22T08:12:43;13.68;;;8.98;;
51883;SDS011;37915;53.254;6.598;2023-06-22T08:15:09;10.55;;;7.63;;
51883;SDS011;37915;53.254;6.598;2023-06-22T08:17:36;9.75;;;7.28;;
51883;SDS011;37915;53.254;6.598;2023-06-22T08:20:05;11.02;;;7.35;;
51883;SDS011;37915;53.254;6.598;2023-06-22T08:22:35;10.95;;;7.45;;
51883;SDS011;37915;53.254;6.598;2023-06-22T08:25:02;9.20;;;6.70;;
51883;SDS011;37915;53.254;6.598;2023-06-22T08:27:29;9.88;;;6.20;;
51883;SDS011;37915;53.254;6.598;2023-06-22T08:29:56;7.70;;;5.93;;
51883;SDS011;37915;53.254;6.598;2023-06-22T08:32:28;7.90;;;5.88;;
51883;SDS011;37915;53.254;6.598;2023-06-22T08:34:54;7.32;;;5.43;;
51883;SDS011;37915;53.254;6.598;2023-06-22T08:37:20;8.00;;;5.40;;
51883;SDS011;37915;53.254;6.598;2023-06-22T08:39:48;9.60;;;6.00;;
51883;SDS011;37915;53.254;6.598;2023-06-22T08:42:15;9.57;;;6.22;;
51883;SDS011;37915;53.254;6.598;2023-06-22T08:44:40;9.70;;;6.45;;
51883;SDS011;37915;53.254;6.598;2023-06-22T08:47:06;10.43;;;5.32;;
51883;SDS011;37915;53.254;6.598;2023-06-22T08:49:32;8.25;;;5.28;;
51883;SDS011;37915;53.254;6.598;2023-06-22T08:51:58;9.65;;;5.70;;
51883;SDS011;37915;53.254;6.598;2023-06-22T08:54:23;7.28;;;4.88;;
51883;SDS011;37915;53.254;6.598;2023-06-22T08:56:49;7.85;;;5.18;;
51883;SDS011;37915;53.254;6.598;2023-06-22T08:59:15;8.40;;;4.90;;
51883;SDS011;37915;53.254;6.598;2023-06-22T09:01:40;8.18;;;5.43;;
51883;SDS011;37915;53.254;6.598;2023-06-22T09:04:13;7.93;;;4.97;;
51883;SDS011;37915;53.254;6.598;2023-06-22T09:06:40;9.68;;;5.22;;
51883;SDS011;37915;53.254;6.598;2023-06-22T09:09:10;9.50;;;5.65;;
51883;SDS011;37915;53.254;6.598;2023-06-22T09:11:38;6.97;;;5.40;;
51883;SDS011;37915;53.254;6.598;2023-06-22T09:14:04;7.63;;;4.93;;
51883;SDS011;37915;53.254;6.598;2023-06-22T09:16:30;7.25;;;5.32;;
51883;SDS011;37915;53.254;6.598;2023-06-22T09:18:55;10.30;;;6.47;;
51883;SDS011;37915;53.254;6.598;2023-06-22T09:21:21;9.05;;;5.63;;
51883;SDS011;37915;53.254;6.598;2023-06-22T09:23:48;10.15;;;5.88;;
51883;SDS011;37915;53.254;6.598;2023-06-22T09:26:16;11.55;;;6.43;;
51883;SDS011;37915;53.254;6.598;2023-06-22T09:28:45;8.82;;;5.82;;
51883;SDS011;37915;53.254;6.598;2023-06-22T09:31:12;9.85;;;6.03;;
51883;SDS011;37915;53.254;6.598;2023-06-22T09:33:37;8.88;;;5.60;;
51883;SDS011;37915;53.254;6.598;2023-06-22T09:36:05;7.90;;;5.57;;
51883;SDS011;37915;53.254;6.598;2023-06-22T09:38:41;7.28;;;5.00;;
51883;SDS011;37915;53.254;6.598;2023-06-22T09:41:07;8.13;;;5.28;;
51883;SDS011;37915;53.254;6.598;2023-06-22T09:43:32;7.57;;;5.03;;
51883;SDS011;37915;53.254;6.598;2023-06-22T09:46:01;9.88;;;5.32;;
51883;SDS011;37915;53.254;6.598;2023-06-22T09:48:28;8.43;;;4.75;;
51883;SDS011;37915;53.254;6.598;2023-06-22T09:50:55;8.95;;;5.07;;
51883;SDS011;37915;53.254;6.598;2023-06-22T09:53:21;9.30;;;5.25;;
51883;SDS011;37915;53.254;6.598;2023-06-22T09:55:47;7.10;;;4.82;;
51883;SDS011;37915;53.254;6.598;2023-06-22T09:58:13;7.57;;;4.88;;
51883;SDS011;37915;53.254;6.598;2023-06-22T10:00:38;9.65;;;6.18;;
51883;SDS011;37915;53.254;6.598;2023-06-22T10:03:06;8.27;;;6.13;;
51883;SDS011;37915;53.254;6.598;2023-06-22T10:05:32;8.93;;;6.20;;
51883;SDS011;37915;53.254;6.598;2023-06-22T10:07:58;7.20;;;4.85;;
51883;SDS011;37915;53.254;6.598;2023-06-22T10:10:23;9.00;;;5.32;;
51883;SDS011;37915;53.254;6.598;2023-06-22T10:12:56;8.23;;;5.57;;
51883;SDS011;37915;53.254;6.598;2023-06-22T10:15:23;8.80;;;5.88;;
51883;SDS011;37915;53.254;6.598;2023-06-22T10:17:49;7.93;;;5.85;;
51883;SDS011;37915;53.254;6.598;2023-06-22T10:20:15;7.22;;;5.45;;
51883;SDS011;37915;53.254;6.598;2023-06-22T10:22:43;8.15;;;6.05;;
51883;SDS011;37915;53.254;6.598;2023-06-22T10:25:10;12.65;;;5.95;;
51883;SDS011;37915;53.254;6.598;2023-06-22T10:27:36;9.52;;;6.35;;
51883;SDS011;37915;53.254;6.598;2023-06-22T10:30:05;8.65;;;6.07;;
51883;SDS011;37915;53.254;6.598;2023-06-22T10:32:32;7.85;;;6.03;;
51883;SDS011;37915;53.254;6.598;2023-06-22T10:34:58;8.07;;;5.80;;
51883;SDS011;37915;53.254;6.598;2023-06-22T10:37:23;9.15;;;6.03;;
51883;SDS011;37915;53.254;6.598;2023-06-22T10:39:49;8.85;;;6.28;;
51883;SDS011;37915;53.254;6.598;2023-06-22T10:42:15;9.00;;;6.20;;
51883;SDS011;37915;53.254;6.598;2023-06-22T10:44:41;9.82;;;5.57;;
51883;SDS011;37915;53.254;6.598;2023-06-22T10:47:09;9.48;;;6.07;;
51883;SDS011;37915;53.254;6.598;2023-06-22T10:49:36;10.07;;;5.20;;
51883;SDS011;37915;53.254;6.598;2023-06-22T10:52:03;10.13;;;5.93;;
51883;SDS011;37915;53.254;6.598;2023-06-22T10:54:30;8.50;;;6.05;;
51883;SDS011;37915;53.254;6.598;2023-06-22T10:56:55;9.02;;;5.63;;
51883;SDS011;37915;53.254;6.598;2023-06-22T10:59:21;10.10;;;6.65;;
51883;SDS011;37915;53.254;6.598;2023-06-22T11:01:48;8.82;;;6.35;;
51883;SDS011;37915;53.254;6.598;2023-06-22T11:04:14;10.07;;;6.53;;
51883;SDS011;37915;53.254;6.598;2023-06-22T11:06:40;9.82;;;5.85;;
51883;SDS011;37915;53.254;6.598;2023-06-22T11:09:05;8.52;;;5.82;;
51883;SDS011;37915;53.254;6.598;2023-06-22T11:11:31;21.05;;;6.70;;
51883;SDS011;37915;53.254;6.598;2023-06-22T11:13:57;9.00;;;5.57;;
51883;SDS011;37915;53.254;6.598;2023-06-22T11:16:22;10.75;;;6.93;;
51883;SDS011;37915;53.254;6.598;2023-06-22T11:18:48;11.55;;;6.63;;
51883;SDS011;37915;53.254;6.598;2023-06-22T11:21:14;8.75;;;6.13;;
51883;SDS011;37915;53.254;6.598;2023-06-22T11:23:39;11.43;;;6.00;;
51883;SDS011;37915;53.254;6.598;2023-06-22T11:26:07;9.13;;;6.18;;
51883;SDS011;37915;53.254;6.598;2023-06-22T11:28:32;7.47;;;5.53;;
51883;SDS011;37915;53.254;6.598;2023-06-22T11:30:58;9.60;;;5.80;;
51883;SDS011;37915;53.254;6.598;2023-06-22T11:33:24;9.00;;;4.97;;
51883;SDS011;37915;53.254;6.598;2023-06-22T11:35:50;7.93;;;5.93;;
51883;SDS011;37915;53.254;6.598;2023-06-22T11:38:15;12.65;;;5.82;;
51883;SDS011;37915;53.254;6.598;2023-06-22T11:40:42;9.10;;;6.10;;
51883;SDS011;37915;53.254;6.598;2023-06-22T11:43:07;9.60;;;5.78;;
51883;SDS011;37915;53.254;6.598;2023-06-22T11:45:33;8.00;;;5.47;;
51883;SDS011;37915;53.254;6.598;2023-06-22T11:47:59;7.60;;;6.10;;
51883;SDS011;37915;53.254;6.598;2023-06-22T11:50:24;10.60;;;5.82;;
51883;SDS011;37915;53.254;6.598;2023-06-22T11:52:50;6.07;;;4.53;;
51883;SDS011;37915;53.254;6.598;2023-06-22T11:55:18;9.38;;;5.05;;
51883;SDS011;37915;53.254;6.598;2023-06-22T11:57:56;10.23;;;5.15;;
51883;SDS011;37915;53.254;6.598;2023-06-22T12:00:25;8.40;;;5.13;;
51883;SDS011;37915;53.254;6.598;2023-06-22T12:02:51;9.60;;;5.15;;
51883;SDS011;37915;53.254;6.598;2023-06-22T12:05:20;7.60;;;5.03;;
51883;SDS011;37915;53.254;6.598;2023-06-22T12:07:47;7.18;;;4.25;;
51883;SDS011;37915;53.254;6.598;2023-06-22T12:10:14;6.18;;;4.55;;
51883;SDS011;37915;53.254;6.598;2023-06-22T12:12:40;7.57;;;4.30;;
51883;SDS011;37915;53.254;6.598;2023-06-22T12:15:06;7.90;;;4.55;;
51883;SDS011;37915;53.254;6.598;2023-06-22T12:17:32;7.28;;;5.20;;
51883;SDS011;37915;53.254;6.598;2023-06-22T12:19:59;9.27;;;5.00;;
51883;SDS011;37915;53.254;6.598;2023-06-22T12:22:24;7.22;;;4.53;;
51883;SDS011;37915;53.254;6.598;2023-06-22T12:24:50;7.25;;;4.05;;
51883;SDS011;37915;53.254;6.598;2023-06-22T12:27:16;6.65;;;4.70;;
51883;SDS011;37915;53.254;6.598;2023-06-22T12:29:44;7.45;;;4.63;;
51883;SDS011;37915;53.254;6.598;2023-06-22T12:32:11;10.05;;;5.15;;
51883;SDS011;37915;53.254;6.598;2023-06-22T12:34:39;7.47;;;4.25;;
51883;SDS011;37915;53.254;6.598;2023-06-22T12:37:05;6.35;;;4.10;;
51883;SDS011;37915;53.254;6.598;2023-06-22T12:39:31;5.93;;;3.58;;
51883;SDS011;37915;53.254;6.598;2023-06-22T12:41:57;5.47;;;3.50;;
51883;SDS011;37915;53.254;6.598;2023-06-22T12:44:23;6.35;;;4.03;;
51883;SDS011;37915;53.254;6.598;2023-06-22T12:46:52;9.10;;;3.88;;
51883;SDS011;37915;53.254;6.598;2023-06-22T12:49:18;7.50;;;3.60;;
51883;SDS011;37915;53.254;6.598;2023-06-22T12:51:44;6.38;;;3.55;;
51883;SDS011;37915;53.254;6.598;2023-06-22T12:54:11;4.68;;;3.20;;
51883;SDS011;37915;53.254;6.598;2023-06-22T12:56:37;6.97;;;3.90;;
51883;SDS011;37915;53.254;6.598;2023-06-22T12:59:06;6.20;;;3.33;;
51883;SDS011;37915;53.254;6.598;2023-06-22T13:01:32;4.90;;;2.90;;
51883;SDS011;37915;53.254;6.598;2023-06-22T13:03:58;5.70;;;3.00;;
51883;SDS011;37915;53.254;6.598;2023-06-22T13:06:24;4.65;;;2.78;;
51883;SDS011;37915;53.254;6.598;2023-06-22T13:08:53;4.25;;;2.50;;
51883;SDS011;37915;53.254;6.598;2023-06-22T13:11:20;5.38;;;2.83;;
51883;SDS011;37915;53.254;6.598;2023-06-22T13:13:46;6.32;;;2.63;;
51883;SDS011;37915;53.254;6.598;2023-06-22T13:16:12;5.35;;;2.63;;
51883;SDS011;37915;53.254;6.598;2023-06-22T13:18:38;5.15;;;2.58;;
51883;SDS011;37915;53.254;6.598;2023-06-22T13:21:04;5.60;;;2.35;;
51883;SDS011;37915;53.254;6.598;2023-06-22T13:23:30;4.82;;;2.70;;
51883;SDS011;37915;53.254;6.598;2023-06-22T13:26:02;6.03;;;2.63;;
51883;SDS011;37915;53.254;6.598;2023-06-22T13:28:27;5.80;;;2.58;;
51883;SDS011;37915;53.254;6.598;2023-06-22T13:30:59;4.75;;;2.42;;
51883;SDS011;37915;53.254;6.598;2023-06-22T13:33:24;4.10;;;2.28;;
51883;SDS011;37915;53.254;6.598;2023-06-22T13:35:57;4.75;;;2.60;;
51883;SDS011;37915;53.254;6.598;2023-06-22T13:38:28;4.72;;;2.30;;
51883;SDS011;37915;53.254;6.598;2023-06-22T13:40:55;5.32;;;2.80;;
51883;SDS011;37915;53.254;6.598;2023-06-22T13:43:23;5.65;;;2.78;;
51883;SDS011;37915;53.254;6.598;2023-06-22T13:45:58;6.28;;;2.03;;
51883;SDS011;37915;53.254;6.598;2023-06-22T13:48:27;4.35;;;2.40;;
51883;SDS011;37915;53.254;6.598;2023-06-22T13:50:53;5.40;;;2.47;;
51883;SDS011;37915;53.254;6.598;2023-06-22T13:53:19;4.28;;;2.30;;
51883;SDS011;37915;53.254;6.598;2023-06-22T13:55:48;4.82;;;2.03;;
51883;SDS011;37915;53.254;6.598;2023-06-22T13:58:13;6.05;;;2.13;;
51883;SDS011;37915;53.254;6.598;2023-06-22T14:00:44;4.95;;;2.65;;
51883;SDS011;37915;53.254;6.598;2023-06-22T14:03:10;8.85;;;2.65;;
51883;SDS011;37915;53.254;6.598;2023-06-22T14:05:36;4.90;;;2.67;;
51883;SDS011;37915;53.254;6.598;2023-06-22T14:08:02;5.80;;;2.42;;
51883;SDS011;37915;53.254;6.598;2023-06-22T14:10:27;5.97;;;2.53;;
51883;SDS011;37915;53.254;6.598;2023-06-22T14:12:53;4.20;;;2.20;;
51883;SDS011;37915;53.254;6.598;2023-06-22T14:15:19;5.15;;;2.38;;
51883;SDS011;37915;53.254;6.598;2023-06-22T14:17:51;7.47;;;2.30;;
51883;SDS011;37915;53.254;6.598;2023-06-22T14:20:17;3.80;;;2.10;;
51883;SDS011;37915;53.254;6.598;2023-06-22T14:22:43;4.20;;;1.85;;
51883;SDS011;37915;53.254;6.598;2023-06-22T14:25:09;3.55;;;1.98;;
51883;SDS011;37915;53.254;6.598;2023-06-22T14:27:35;5.00;;;1.60;;
51883;SDS011;37915;53.254;6.598;2023-06-22T14:30:00;5.40;;;1.90;;
51883;SDS011;37915;53.254;6.598;2023-06-22T14:32:27;4.00;;;1.42;;
51883;SDS011;37915;53.254;6.598;2023-06-22T14:34:55;8.40;;;1.77;;
51883;SDS011;37915;53.254;6.598;2023-06-22T14:37:20;3.42;;;1.70;;
51883;SDS011;37915;53.254;6.598;2023-06-22T14:39:49;3.65;;;1.45;;
51883;SDS011;37915;53.254;6.598;2023-06-22T14:42:15;3.60;;;1.38;;